createdAt,value
2018-03-25T00:00:10.838Z,7.02
2018-03-25T00:02:38.897Z,7.02
2018-03-25T00:05:07.217Z,7.01
2018-03-25T00:07:35.561Z,6.99
2018-03-25T00:10:03.882Z,7.14
2018-03-25T00:12:32.242Z,7.09
2018-03-25T00:15:00.573Z,7.05
2018-03-25T00:17:29.206Z,7.09
2018-03-25T00:19:57.551Z,7.06
2018-03-25T00:22:25.870Z,7.05
2018-03-25T00:24:54.213Z,7.08
2018-03-25T00:27:22.530Z,7.14
2018-03-25T00:29:50.874Z,7.13
2018-03-25T00:32:19.196Z,6.99
2018-03-25T00:34:47.669Z,7.01
2018-03-25T00:37:16.003Z,6.95
2018-03-25T00:39:44.347Z,6.86
2018-03-25T00:42:12.829Z,6.88
2018-03-25T00:44:41.256Z,6.90
2018-03-25T00:47:09.578Z,7.03
2018-03-25T00:49:37.926Z,7.05
2018-03-25T00:52:06.248Z,6.99
2018-03-25T00:54:34.585Z,6.94
2018-03-25T00:57:02.949Z,6.81
2018-03-25T00:59:31.290Z,6.82
2018-03-25T01:01:59.728Z,6.65
2018-03-25T01:04:28.062Z,6.70
2018-03-25T01:06:56.394Z,6.65
2018-03-25T01:09:24.742Z,6.59
2018-03-25T01:11:53.061Z,6.58
2018-03-25T01:14:21.414Z,6.65
2018-03-25T01:16:49.734Z,6.50
2018-03-25T01:19:18.078Z,6.50
2018-03-25T01:21:46.433Z,6.47
2018-03-25T01:24:14.774Z,6.27
2018-03-25T01:26:43.094Z,6.34
2018-03-25T01:29:11.442Z,6.40
2018-03-25T01:31:39.765Z,6.41
2018-03-25T01:34:08.106Z,6.37
2018-03-25T01:36:36.460Z,6.30
2018-03-25T01:39:04.839Z,6.27
2018-03-25T01:41:33.157Z,6.21
2018-03-25T01:44:01.502Z,6.18
2018-03-25T01:46:29.821Z,6.05
2018-03-25T01:48:58.164Z,6.06
2018-03-25T01:51:26.482Z,6.08
2018-03-25T01:53:54.825Z,6.00
2018-03-25T01:56:23.142Z,6.07
2018-03-25T01:58:51.513Z,5.93
2018-03-25T02:04:00.170Z,5.94
2018-03-25T02:06:28.485Z,5.84
2018-03-25T02:08:56.827Z,5.78
2018-03-25T02:11:25.146Z,5.87
2018-03-25T02:13:53.481Z,5.94
2018-03-25T02:16:21.797Z,5.84
2018-03-25T02:18:50.143Z,5.89
2018-03-25T02:21:18.458Z,5.88
2018-03-25T02:23:46.813Z,5.75
2018-03-25T02:26:15.133Z,5.71
2018-03-25T02:28:43.449Z,5.69
2018-03-25T02:31:11.790Z,5.70
2018-03-25T02:33:40.115Z,5.75
2018-03-25T02:36:08.488Z,5.71
2018-03-25T02:38:36.795Z,5.77
2018-03-25T02:41:05.144Z,5.69
2018-03-25T02:43:33.459Z,5.76
2018-03-25T02:46:01.798Z,5.61
2018-03-25T02:48:30.120Z,5.75
2018-03-25T02:50:58.454Z,5.68
2018-03-25T02:53:26.776Z,5.77
2018-03-25T02:55:55.118Z,5.85
2018-03-25T02:58:23.439Z,5.95
2018-03-25T03:00:51.786Z,6.04
2018-03-25T03:03:20.102Z,6.15
2018-03-25T03:05:48.446Z,6.26
2018-03-25T03:08:16.766Z,6.29
2018-03-25T03:10:45.102Z,6.76
2018-03-25T03:13:13.422Z,6.73
2018-03-25T03:15:41.762Z,6.63
2018-03-25T03:18:10.083Z,6.52
2018-03-25T03:20:38.432Z,6.44
2018-03-25T03:23:06.750Z,6.42
2018-03-25T03:25:35.095Z,6.38
2018-03-25T03:28:03.418Z,6.38
2018-03-25T03:30:31.764Z,6.38
2018-03-25T03:33:00.074Z,6.35
2018-03-25T03:35:28.417Z,6.30
2018-03-25T03:37:56.742Z,6.29
2018-03-25T03:40:25.086Z,6.23
2018-03-25T03:42:53.411Z,6.15
2018-03-25T03:45:21.750Z,6.18
2018-03-25T03:47:50.070Z,6.17
2018-03-25T03:50:18.414Z,6.16
2018-03-25T03:52:46.738Z,6.14
2018-03-25T03:55:15.093Z,6.13
2018-03-25T03:57:43.471Z,6.12
2018-03-25T04:00:11.836Z,6.14
2018-03-25T04:02:40.168Z,6.14
2018-03-25T04:05:08.515Z,6.19
2018-03-25T04:07:36.858Z,6.24
2018-03-25T04:10:05.224Z,6.25
2018-03-25T04:12:33.572Z,6.24
2018-03-25T04:15:01.934Z,6.25
2018-03-25T04:17:30.254Z,6.30
2018-03-25T04:19:58.698Z,6.30
2018-03-25T04:22:27.025Z,6.28
2018-03-25T04:24:55.394Z,6.28
2018-03-25T04:27:23.725Z,6.30
2018-03-25T04:29:52.037Z,6.32
2018-03-25T04:32:20.386Z,6.35
2018-03-25T04:34:48.715Z,6.36
2018-03-25T04:37:17.075Z,6.33
2018-03-25T04:39:45.414Z,6.30
2018-03-25T04:42:13.754Z,6.32
2018-03-25T04:44:42.074Z,6.34
2018-03-25T04:47:10.413Z,6.35
2018-03-25T04:49:38.733Z,6.39
2018-03-25T04:52:07.073Z,6.37
2018-03-25T04:54:35.402Z,6.41
2018-03-25T04:57:03.773Z,6.42
2018-03-25T04:59:32.091Z,6.47
2018-03-25T05:02:00.434Z,6.48
2018-03-25T05:04:28.772Z,6.47
2018-03-25T05:06:57.122Z,6.47
2018-03-25T05:09:25.446Z,6.45
2018-03-25T05:11:53.789Z,6.42
2018-03-25T05:14:22.121Z,6.36
2018-03-25T05:16:50.462Z,6.35
2018-03-25T05:19:18.809Z,6.23
2018-03-25T05:21:47.178Z,6.18
2018-03-25T05:24:15.532Z,6.19
2018-03-25T05:26:43.874Z,6.27
2018-03-25T05:29:12.204Z,6.35
2018-03-25T05:31:40.543Z,6.39
2018-03-25T05:34:08.903Z,6.38
2018-03-25T05:36:37.216Z,6.34
2018-03-25T05:39:05.545Z,6.32
2018-03-25T05:41:33.888Z,6.33
2018-03-25T05:44:02.206Z,6.35
2018-03-25T05:46:30.551Z,6.27
2018-03-25T05:48:58.865Z,6.10
2018-03-25T05:51:27.205Z,6.08
2018-03-25T05:53:55.528Z,6.08
2018-03-25T05:56:23.862Z,6.09
2018-03-25T05:58:52.185Z,6.06
2018-03-25T06:01:20.563Z,6.02
2018-03-25T06:03:48.846Z,6.06
2018-03-25T06:06:17.190Z,6.11
2018-03-25T06:08:45.510Z,6.08
2018-03-25T06:11:13.856Z,6.09
2018-03-25T06:13:42.177Z,6.12
2018-03-25T06:16:10.522Z,6.15
2018-03-25T06:18:38.843Z,6.21
2018-03-25T06:21:07.189Z,6.27
2018-03-25T06:23:35.502Z,6.24
2018-03-25T06:26:03.842Z,6.27
2018-03-25T06:28:32.161Z,6.23
2018-03-25T06:31:00.479Z,6.20
2018-03-25T06:33:28.818Z,6.19
2018-03-25T06:35:57.146Z,6.19
2018-03-25T06:38:25.485Z,6.16
2018-03-25T06:40:53.810Z,6.20
2018-03-25T06:43:22.151Z,6.16
2018-03-25T06:45:50.470Z,6.21
2018-03-25T06:48:18.810Z,6.22
2018-03-25T06:50:47.130Z,6.35
2018-03-25T06:53:15.474Z,6.40
2018-03-25T06:55:43.790Z,6.35
2018-03-25T06:58:12.134Z,6.43
2018-03-25T07:00:40.459Z,6.45
2018-03-25T07:03:08.805Z,6.43
2018-03-25T07:05:37.119Z,6.44
2018-03-25T07:08:05.457Z,6.51
2018-03-25T07:10:33.786Z,6.45
2018-03-25T07:13:02.127Z,6.50
2018-03-25T07:15:30.447Z,6.50
2018-03-25T07:17:58.791Z,6.53
2018-03-25T07:20:27.122Z,6.66
2018-03-25T07:22:55.458Z,6.79
2018-03-25T07:25:23.778Z,6.81
2018-03-25T07:27:52.128Z,6.74
2018-03-25T07:30:20.441Z,6.85
2018-03-25T07:32:48.782Z,6.90
2018-03-25T07:35:17.103Z,6.90
2018-03-25T07:37:45.455Z,6.92
2018-03-25T07:40:13.765Z,7.00
2018-03-25T07:42:42.097Z,7.11
2018-03-25T07:45:10.419Z,7.08
2018-03-25T07:47:38.771Z,7.09
2018-03-25T07:50:07.161Z,7.07
2018-03-25T07:52:35.430Z,7.04
2018-03-25T07:55:03.755Z,7.09
2018-03-25T07:57:32.093Z,7.19
2018-03-25T08:00:00.414Z,7.17
2018-03-25T08:02:28.757Z,7.33
2018-03-25T08:04:57.594Z,7.47
2018-03-25T08:07:25.939Z,7.50
2018-03-25T08:09:54.275Z,7.56
2018-03-25T08:12:22.622Z,7.60
2018-03-25T08:14:50.946Z,7.50
2018-03-25T08:17:19.294Z,7.60
2018-03-25T08:19:47.614Z,7.79
2018-03-25T08:22:15.958Z,7.82
2018-03-25T08:24:44.309Z,7.81
2018-03-25T08:27:12.655Z,7.93
2018-03-25T08:29:40.982Z,8.08
2018-03-25T08:32:09.303Z,8.10
2018-03-25T08:34:37.646Z,8.15
2018-03-25T08:37:06.883Z,8.10
2018-03-25T08:39:35.255Z,8.11
2018-03-25T08:42:03.610Z,8.12
2018-03-25T08:44:32.003Z,8.33
2018-03-25T08:47:00.427Z,8.49
2018-03-25T08:49:28.800Z,8.60
2018-03-25T08:51:57.139Z,8.45
2018-03-25T08:54:25.516Z,8.58
2018-03-25T08:56:53.860Z,8.63
2018-03-25T08:59:22.244Z,8.71
2018-03-25T09:01:50.841Z,8.63
2018-03-25T09:04:19.701Z,8.80
2018-03-25T09:06:48.171Z,9.02
2018-03-25T09:09:16.494Z,9.12
2018-03-25T09:11:44.819Z,9.07
2018-03-25T09:14:13.178Z,9.18
2018-03-25T09:16:41.498Z,9.27
2018-03-25T09:19:10.783Z,9.42
2018-03-25T09:21:39.130Z,9.35
2018-03-25T09:24:07.478Z,9.37
2018-03-25T09:26:35.806Z,9.44
2018-03-25T09:29:05.083Z,9.54
2018-03-25T09:31:33.690Z,9.75
2018-03-25T09:34:02.039Z,9.87
2018-03-25T09:36:30.365Z,9.96
2018-03-25T09:38:58.710Z,10.05
2018-03-25T09:41:27.043Z,10.09
2018-03-25T09:43:55.391Z,10.21
2018-03-25T09:46:24.622Z,10.32
2018-03-25T09:48:52.997Z,10.34
2018-03-25T09:51:21.321Z,10.28
2018-03-25T09:53:49.674Z,10.28
2018-03-25T09:56:19.006Z,10.51
2018-03-25T09:58:47.357Z,10.49
2018-03-25T10:04:15.350Z,10.67
2018-03-25T10:06:43.790Z,10.55
2018-03-25T10:09:12.143Z,10.67
2018-03-25T10:11:40.466Z,10.71
2018-03-25T10:14:08.830Z,10.60
2018-03-25T10:16:37.154Z,10.65
2018-03-25T10:19:05.513Z,10.66
2018-03-25T10:21:34.145Z,10.77
2018-03-25T10:24:02.582Z,11.08
2018-03-25T10:26:30.932Z,11.17
2018-03-25T10:28:59.302Z,11.15
2018-03-25T10:31:27.634Z,11.21
2018-03-25T10:33:56.032Z,11.24
2018-03-25T10:36:25.361Z,11.33
2018-03-25T10:38:53.715Z,11.54
2018-03-25T10:41:22.066Z,11.55
2018-03-25T10:43:50.515Z,11.57
2018-03-25T10:46:19.858Z,11.56
2018-03-25T10:48:48.231Z,11.75
2018-03-25T10:51:16.583Z,11.93
2018-03-25T10:53:44.953Z,11.97
2018-03-25T10:56:14.207Z,11.91
2018-03-25T10:58:42.571Z,11.98
2018-03-25T11:01:11.802Z,12.08
2018-03-25T11:03:40.192Z,12.16
2018-03-25T11:06:08.625Z,12.18
2018-03-25T11:08:36.998Z,12.23
2018-03-25T11:11:05.369Z,12.30
2018-03-25T11:13:33.732Z,12.26
2018-03-25T11:16:02.112Z,12.19
2018-03-25T11:18:30.459Z,12.01
2018-03-25T11:20:58.809Z,12.04
2018-03-25T11:23:27.148Z,12.11
2018-03-25T11:25:55.499Z,12.17
2018-03-25T11:28:23.842Z,12.11
2018-03-25T11:30:52.354Z,12.11
2018-03-25T11:33:20.779Z,12.21
2018-03-25T11:35:49.150Z,12.15
2018-03-25T11:38:17.483Z,12.16
2018-03-25T11:40:45.920Z,12.20
2018-03-25T11:43:14.252Z,12.23
2018-03-25T11:45:42.602Z,12.13
2018-03-25T11:48:10.935Z,12.18
2018-03-25T11:50:39.302Z,12.29
2018-03-25T11:53:07.639Z,12.46
2018-03-25T11:55:36.002Z,12.41
2018-03-25T11:58:04.358Z,12.49
2018-03-25T12:00:32.711Z,12.52
2018-03-25T12:03:01.055Z,12.55
2018-03-25T12:05:29.483Z,12.61
2018-03-25T12:07:57.814Z,12.68
2018-03-25T12:10:26.174Z,12.88
2018-03-25T12:12:54.513Z,12.95
2018-03-25T12:15:22.872Z,12.95
2018-03-25T12:17:51.275Z,12.72
2018-03-25T12:20:19.649Z,12.68
2018-03-25T12:22:48.288Z,12.71
2018-03-25T12:25:16.698Z,12.79
2018-03-25T12:27:45.039Z,12.61
2018-03-25T12:30:13.482Z,12.55
2018-03-25T12:32:42.044Z,12.80
2018-03-25T12:35:10.573Z,12.92
2018-03-25T12:37:39.034Z,12.87
2018-03-25T12:40:07.379Z,12.92
2018-03-25T12:42:35.739Z,13.00
2018-03-25T12:45:04.106Z,13.02
2018-03-25T12:47:32.439Z,12.93
2018-03-25T12:50:00.794Z,12.87
2018-03-25T12:52:29.132Z,12.93
2018-03-25T12:54:57.507Z,12.97
2018-03-25T12:57:25.847Z,13.07
2018-03-25T12:59:54.343Z,12.99
2018-03-25T13:02:22.675Z,12.78
2018-03-25T13:04:51.040Z,12.76
2018-03-25T13:07:19.446Z,12.82
2018-03-25T13:09:47.766Z,12.92
2018-03-25T13:12:16.123Z,13.09
2018-03-25T13:14:44.457Z,13.10
2018-03-25T13:17:12.805Z,13.16
2018-03-25T13:19:41.149Z,13.02
2018-03-25T13:22:09.500Z,13.11
2018-03-25T13:24:37.888Z,13.22
2018-03-25T13:27:06.236Z,13.10
2018-03-25T13:29:34.562Z,13.19
2018-03-25T13:32:02.909Z,13.05
2018-03-25T13:34:31.238Z,13.07
2018-03-25T13:36:59.591Z,13.29
2018-03-25T13:39:27.919Z,13.28
2018-03-25T13:41:56.270Z,13.27
2018-03-25T13:44:25.558Z,13.30
2018-03-25T13:46:53.887Z,13.35
2018-03-25T13:49:22.218Z,13.39
2018-03-25T13:51:50.566Z,13.42
2018-03-25T13:54:18.894Z,13.19
2018-03-25T13:56:47.250Z,13.16
2018-03-25T13:59:15.587Z,13.18
2018-03-25T14:01:43.939Z,13.29
2018-03-25T14:04:12.271Z,13.35
2018-03-25T14:06:41.570Z,13.39
2018-03-25T14:09:09.903Z,13.34
2018-03-25T14:11:38.266Z,13.06
2018-03-25T14:14:06.595Z,13.08
2018-03-25T14:16:34.953Z,13.18
2018-03-25T14:19:03.282Z,13.21
2018-03-25T14:21:31.633Z,13.35
2018-03-25T14:23:59.962Z,13.30
2018-03-25T14:26:28.312Z,13.27
2018-03-25T14:28:56.648Z,13.23
2018-03-25T14:31:25.031Z,13.20
2018-03-25T14:33:53.366Z,13.14
2018-03-25T14:36:21.728Z,13.21
2018-03-25T14:38:50.050Z,13.18
2018-03-25T14:41:18.398Z,13.01
2018-03-25T14:43:46.726Z,13.01
2018-03-25T14:46:15.074Z,13.03
2018-03-25T14:48:43.405Z,13.12
2018-03-25T14:51:11.754Z,13.22
2018-03-25T14:53:40.093Z,13.15
2018-03-25T14:56:08.662Z,13.08
2018-03-25T14:58:36.971Z,13.04
2018-03-25T15:01:05.326Z,13.02
2018-03-25T15:03:33.663Z,13.08
2018-03-25T15:06:02.016Z,12.99
2018-03-25T15:08:30.343Z,13.06
2018-03-25T15:10:58.689Z,13.13
2018-03-25T15:13:27.062Z,13.10
2018-03-25T15:15:55.390Z,13.08
2018-03-25T15:18:23.742Z,13.07
2018-03-25T15:20:52.070Z,13.03
2018-03-25T15:23:20.426Z,12.93
2018-03-25T15:25:48.754Z,12.84
2018-03-25T15:28:17.110Z,12.84
2018-03-25T15:30:45.471Z,12.89
2018-03-25T15:33:13.807Z,12.91
2018-03-25T15:35:42.138Z,12.82
2018-03-25T15:38:10.536Z,12.87
2018-03-25T15:40:39.035Z,12.93
2018-03-25T15:43:07.373Z,12.94
2018-03-25T15:45:35.749Z,12.85
2018-03-25T15:48:04.062Z,12.87
2018-03-25T15:50:32.394Z,12.84
2018-03-25T15:53:00.742Z,12.86
2018-03-25T15:55:29.070Z,12.92
2018-03-25T15:57:57.422Z,12.92
2018-03-25T16:00:26.662Z,12.87
2018-03-25T16:02:55.029Z,12.85
2018-03-25T16:05:23.342Z,12.89
2018-03-25T16:07:51.693Z,12.82
2018-03-25T16:10:20.027Z,12.76
2018-03-25T16:12:48.379Z,12.77
2018-03-25T16:15:16.698Z,12.78
2018-03-25T16:17:45.055Z,12.72
2018-03-25T16:20:13.391Z,12.72
2018-03-25T16:22:41.737Z,12.68
2018-03-25T16:25:10.075Z,12.66
2018-03-25T16:27:38.425Z,12.67
2018-03-25T16:30:06.754Z,12.65
2018-03-25T16:32:35.113Z,12.62
2018-03-25T16:35:03.455Z,12.64
2018-03-25T16:37:31.807Z,12.68
2018-03-25T16:40:00.155Z,12.72
2018-03-25T16:42:28.485Z,12.74
2018-03-25T16:44:56.820Z,12.71
2018-03-25T16:47:25.169Z,12.71
2018-03-25T16:49:53.508Z,12.66
2018-03-25T16:52:21.860Z,12.70
2018-03-25T16:54:50.194Z,12.71
2018-03-25T16:57:18.758Z,12.80
2018-03-25T16:59:47.095Z,12.85
2018-03-25T17:02:15.456Z,12.77
2018-03-25T17:04:43.796Z,12.81
2018-03-25T17:07:12.152Z,12.83
2018-03-25T17:09:40.475Z,12.79
2018-03-25T17:12:08.830Z,12.83
2018-03-25T17:14:37.190Z,12.85
2018-03-25T17:17:06.354Z,12.85
2018-03-25T17:19:34.710Z,12.85
2018-03-25T17:22:03.055Z,12.86
2018-03-25T17:24:31.417Z,12.85
2018-03-25T17:26:59.742Z,12.83
2018-03-25T17:29:28.145Z,12.81
2018-03-25T17:31:56.515Z,12.83
2018-03-25T17:34:24.868Z,12.85
2018-03-25T17:36:53.194Z,12.84
2018-03-25T17:39:21.546Z,12.80
2018-03-25T17:41:49.931Z,12.76
2018-03-25T17:44:18.230Z,12.74
2018-03-25T17:46:46.574Z,12.72
2018-03-25T17:49:14.926Z,12.68
2018-03-25T17:51:43.250Z,12.68
2018-03-25T17:54:11.610Z,12.63
2018-03-25T17:56:39.930Z,12.61
2018-03-25T17:59:08.291Z,12.59
2018-03-25T18:01:36.622Z,12.59
2018-03-25T18:04:04.975Z,12.62
2018-03-25T18:06:33.306Z,12.53
2018-03-25T18:09:01.650Z,12.52
2018-03-25T18:11:29.982Z,12.48
2018-03-25T18:13:58.440Z,12.46
2018-03-25T18:16:26.766Z,12.41
2018-03-25T18:18:55.114Z,12.37
2018-03-25T18:21:23.451Z,12.26
2018-03-25T18:23:51.794Z,12.27
2018-03-25T18:26:20.122Z,12.28
2018-03-25T18:28:48.479Z,12.28
2018-03-25T18:31:16.817Z,12.20
2018-03-25T18:33:46.073Z,12.25
2018-03-25T18:36:14.402Z,12.18
2018-03-25T18:38:42.762Z,12.11
2018-03-25T18:41:11.094Z,12.08
2018-03-25T18:43:39.446Z,12.04
2018-03-25T18:46:07.776Z,12.01
2018-03-25T18:48:36.131Z,12.00
2018-03-25T18:51:04.474Z,11.95
2018-03-25T18:53:33.822Z,11.93
2018-03-25T18:56:02.206Z,11.92
2018-03-25T18:58:30.591Z,11.84
2018-03-25T19:00:58.915Z,11.81
2018-03-25T19:03:27.385Z,11.79
2018-03-25T19:05:55.792Z,11.72
2018-03-25T19:08:24.142Z,11.66
2018-03-25T19:10:52.470Z,11.65
2018-03-25T19:13:21.456Z,11.59
2018-03-25T19:15:49.804Z,11.52
2018-03-25T19:18:18.154Z,11.51
2018-03-25T19:20:46.516Z,11.46
2018-03-25T19:23:14.858Z,11.49
2018-03-25T19:25:43.212Z,11.48
2018-03-25T19:28:11.538Z,11.52
2018-03-25T19:30:39.895Z,11.58
2018-03-25T19:33:08.232Z,11.65
2018-03-25T19:35:36.590Z,12.50
2018-03-25T19:38:04.923Z,12.50
2018-03-25T19:40:33.317Z,12.31
2018-03-25T19:43:01.619Z,12.21
2018-03-25T19:45:29.978Z,12.18
2018-03-25T19:47:58.310Z,12.18
2018-03-25T19:50:26.666Z,12.16
2018-03-25T19:52:55.727Z,12.14
2018-03-25T19:55:24.122Z,12.05
2018-03-25T19:57:52.438Z,11.96
2018-03-25T20:00:20.791Z,11.92
2018-03-25T20:02:49.122Z,11.74
2018-03-25T20:05:17.476Z,11.78
2018-03-25T20:07:45.801Z,11.78
2018-03-25T20:10:14.158Z,11.78
2018-03-25T20:12:43.283Z,11.81
2018-03-25T20:15:11.634Z,11.79
2018-03-25T20:17:39.959Z,11.77
2018-03-25T20:20:08.309Z,11.75
2018-03-25T20:22:36.638Z,11.73
2018-03-25T20:25:04.995Z,11.69
2018-03-25T20:27:33.331Z,11.68
2018-03-25T20:30:01.678Z,11.66
2018-03-25T20:32:30.011Z,11.63
2018-03-25T20:34:58.366Z,11.61
2018-03-25T20:37:26.699Z,11.59
2018-03-25T20:39:55.055Z,11.55
2018-03-25T20:42:23.391Z,11.52
2018-03-25T20:44:51.738Z,11.49
2018-03-25T20:47:20.071Z,11.47
2018-03-25T20:49:48.417Z,11.48
2018-03-25T20:52:16.764Z,11.44
2018-03-25T20:54:45.095Z,11.44
2018-03-25T20:57:13.426Z,11.40
2018-03-25T20:59:41.783Z,11.37
2018-03-25T21:02:10.115Z,11.36
2018-03-25T21:04:38.461Z,11.29
2018-03-25T21:07:06.798Z,11.18
2018-03-25T21:09:35.251Z,11.09
2018-03-25T21:12:03.571Z,11.09
2018-03-25T21:14:31.926Z,11.07
2018-03-25T21:17:00.259Z,11.07
2018-03-25T21:19:28.616Z,11.05
2018-03-25T21:21:56.965Z,11.06
2018-03-25T21:24:25.290Z,11.07
2018-03-25T21:26:53.647Z,11.15
2018-03-25T21:29:21.974Z,11.11
2018-03-25T21:31:50.321Z,11.08
2018-03-25T21:34:18.654Z,11.06
2018-03-25T21:36:47.006Z,11.07
2018-03-25T21:39:16.281Z,11.02
2018-03-25T21:41:44.631Z,11.04
2018-03-25T21:44:12.961Z,11.04
2018-03-25T21:46:41.318Z,11.01
2018-03-25T21:49:09.650Z,10.87
2018-03-25T21:51:38.013Z,10.75
2018-03-25T21:54:06.338Z,10.74
2018-03-25T21:56:34.685Z,10.73
2018-03-25T21:59:03.023Z,10.64
2018-03-25T22:01:31.375Z,10.53
2018-03-25T22:03:59.710Z,10.57
2018-03-25T22:06:28.062Z,10.58
2018-03-25T22:08:56.391Z,10.48
2018-03-25T22:11:24.747Z,10.44
2018-03-25T22:13:53.659Z,10.50
2018-03-25T22:16:22.007Z,10.52
2018-03-25T22:18:59.299Z,10.62
2018-03-25T22:21:27.647Z,10.62
2018-03-25T22:23:55.977Z,10.60
2018-03-25T22:26:24.322Z,10.57
2018-03-25T22:28:52.651Z,10.56
2018-03-25T22:31:21.006Z,10.55
2018-03-25T22:33:49.338Z,10.56
2018-03-25T22:36:17.696Z,10.58
2018-03-25T22:38:46.032Z,10.55
2018-03-25T22:41:14.382Z,10.57
2018-03-25T22:43:42.710Z,10.60
2018-03-25T22:46:11.057Z,10.60
2018-03-25T22:48:39.403Z,10.60
2018-03-25T22:51:07.774Z,10.55
2018-03-25T22:53:36.070Z,10.53
2018-03-25T22:56:04.419Z,10.55
2018-03-25T22:58:32.749Z,10.55
2018-03-25T23:01:01.110Z,10.57
2018-03-25T23:03:29.437Z,10.55
2018-03-25T23:05:57.789Z,10.52
2018-03-25T23:08:26.118Z,10.50
2018-03-25T23:10:54.474Z,10.44
2018-03-25T23:13:22.802Z,10.42
2018-03-25T23:15:51.150Z,10.36
2018-03-25T23:18:19.487Z,10.33
2018-03-25T23:20:47.854Z,10.37
2018-03-25T23:23:16.187Z,10.35
2018-03-25T23:25:44.585Z,10.26
2018-03-25T23:28:12.866Z,10.28
2018-03-25T23:30:41.201Z,10.24
2018-03-25T23:33:09.545Z,10.23
2018-03-25T23:35:37.885Z,10.23
2018-03-25T23:38:06.239Z,10.25
2018-03-25T23:40:34.570Z,10.25
2018-03-25T23:43:02.923Z,10.26
2018-03-25T23:45:31.282Z,10.20
2018-03-25T23:47:59.630Z,10.15
2018-03-25T23:50:27.970Z,10.14
2018-03-25T23:52:56.322Z,10.20
2018-03-25T23:55:24.650Z,10.21
2018-03-25T23:57:53.008Z,10.24
